createdAt,value
2019-01-10T00:01:45.196Z,321.68
2019-01-10T00:04:21.822Z,293.85
2019-01-10T00:06:58.572Z,297.80
2019-01-10T00:09:34.668Z,283.30
2019-01-10T00:12:11.226Z,275.38
2019-01-10T00:14:48.212Z,259.37
2019-01-10T00:17:23.963Z,248.60
2019-01-10T00:20:00.781Z,252.25
2019-01-10T00:22:37.283Z,249.65
2019-01-10T00:25:14.379Z,231.23
2019-01-10T00:27:50.836Z,236.35
2019-01-10T00:30:26.750Z,235.40
2019-01-10T00:33:02.657Z,220.15
2019-01-10T00:35:38.378Z,220.52
2019-01-10T00:38:14.973Z,217.82
2019-01-10T00:40:51.658Z,213.13
2019-01-10T00:43:27.665Z,204.75
2019-01-10T00:46:04.461Z,197.13
2019-01-10T00:48:40.322Z,190.20
2019-01-10T00:51:16.294Z,178.87
2019-01-10T00:53:52.074Z,186.67
2019-01-10T00:56:29.647Z,174.67
2019-01-10T00:59:05.884Z,174.47
2019-01-10T01:01:42.752Z,168.00
2019-01-10T01:04:19.139Z,167.40
2019-01-10T01:06:55.626Z,153.60
2019-01-10T01:09:31.505Z,161.27
2019-01-10T01:12:07.860Z,145.03
2019-01-10T01:14:44.264Z,155.67
2019-01-10T01:17:20.785Z,143.57
2019-01-10T01:19:57.544Z,138.20
2019-01-10T01:22:33.738Z,140.43
2019-01-10T01:25:10.645Z,136.62
2019-01-10T01:27:47.276Z,135.13
2019-01-10T01:30:25.177Z,130.60
2019-01-10T01:33:01.903Z,133.67
2019-01-10T01:35:38.131Z,124.03
2019-01-10T01:38:15.401Z,116.37
2019-01-10T01:40:51.932Z,108.83
2019-01-10T01:43:28.014Z,108.25
2019-01-10T01:46:04.268Z,107.55
2019-01-10T01:48:40.844Z,107.37
2019-01-10T01:51:16.902Z,103.20
2019-01-10T01:53:53.310Z,102.32
2019-01-10T01:56:29.576Z,99.85
2019-01-10T01:59:17.370Z,97.33
2019-01-10T02:01:53.221Z,91.67
2019-01-10T02:04:29.604Z,95.35
2019-01-10T02:07:05.931Z,91.77
2019-01-10T02:09:42.512Z,88.78
2019-01-10T02:12:18.729Z,86.53
2019-01-10T02:14:54.596Z,85.57
2019-01-10T02:17:30.389Z,83.70
2019-01-10T02:20:06.963Z,77.60
2019-01-10T02:22:43.333Z,78.57
2019-01-10T02:25:19.827Z,76.40
2019-01-10T02:27:56.591Z,70.47
2019-01-10T02:30:41.614Z,68.00
2019-01-10T02:33:10.480Z,67.73
2019-01-10T02:35:46.790Z,68.02
2019-01-10T02:38:23.583Z,72.23
2019-01-10T02:41:02.747Z,65.90
2019-01-10T02:43:38.012Z,64.20
2019-01-10T02:46:14.792Z,64.10
2019-01-10T02:48:51.240Z,63.07
2019-01-10T02:51:27.312Z,61.90
2019-01-10T02:54:03.921Z,55.63
2019-01-10T02:56:40.703Z,56.95
2019-01-10T02:59:17.636Z,55.30
2019-01-10T03:01:54.141Z,54.73
2019-01-10T03:04:29.979Z,53.63
2019-01-10T03:07:05.938Z,52.50
2019-01-10T03:09:42.482Z,51.17
2019-01-10T03:12:18.726Z,53.03
2019-01-10T03:14:54.613Z,43.47
2019-01-10T03:17:30.781Z,49.10
2019-01-10T03:20:09.156Z,47.33
2019-01-10T03:22:46.009Z,44.70
2019-01-10T03:25:22.926Z,42.40
2019-01-10T03:27:58.970Z,42.60
2019-01-10T03:30:35.174Z,44.67
2019-01-10T03:33:11.466Z,42.90
2019-01-10T03:35:48.099Z,39.27
2019-01-10T03:38:24.368Z,39.83
2019-01-10T03:41:00.653Z,36.80
2019-01-10T03:43:46.457Z,37.37
2019-01-10T03:46:14.822Z,39.00
2019-01-10T03:48:51.502Z,41.35
2019-01-10T03:51:28.057Z,37.88
2019-01-10T03:54:04.486Z,35.60
2019-01-10T03:56:41.503Z,33.50
2019-01-10T03:59:18.141Z,37.23
2019-01-10T04:01:54.033Z,33.65
2019-01-10T04:04:29.990Z,32.60
2019-01-10T04:07:06.328Z,34.10
2019-01-10T04:09:42.672Z,33.50
2019-01-10T04:12:19.057Z,33.00
2019-01-10T04:14:55.210Z,30.62
2019-01-10T04:17:30.956Z,30.53
2019-01-10T04:20:08.374Z,29.87
2019-01-10T04:22:45.167Z,32.77
2019-01-10T04:25:26.024Z,31.23
2019-01-10T04:28:01.932Z,27.27
2019-01-10T04:30:38.790Z,27.60
2019-01-10T04:33:15.252Z,29.13
2019-01-10T04:35:51.745Z,25.73
2019-01-10T04:38:28.085Z,24.93
2019-01-10T04:41:05.152Z,25.02
2019-01-10T04:43:41.118Z,25.72
2019-01-10T04:46:17.660Z,23.93
2019-01-10T04:48:54.229Z,22.57
2019-01-10T04:51:31.457Z,20.12
2019-01-10T04:54:08.055Z,23.27
2019-01-10T04:57:15.087Z,23.63
2019-01-10T04:59:51.351Z,23.15
2019-01-10T05:02:27.643Z,19.90
2019-01-10T05:05:03.452Z,21.20
2019-01-10T05:07:39.433Z,19.70
2019-01-10T05:10:15.964Z,19.20
2019-01-10T05:12:52.753Z,18.47
2019-01-10T05:15:29.465Z,19.05
2019-01-10T05:18:08.092Z,20.73
2019-01-10T05:20:44.646Z,20.43
2019-01-10T05:23:22.236Z,20.53
2019-01-10T05:25:59.402Z,19.97
2019-01-10T05:28:35.060Z,18.03
2019-01-10T05:31:11.801Z,18.42
2019-01-10T05:33:47.545Z,16.00
2019-01-10T05:36:23.916Z,16.17
2019-01-10T05:39:01.063Z,16.87
2019-01-10T05:41:37.204Z,16.52
2019-01-10T05:44:13.225Z,15.85
2019-01-10T05:46:49.719Z,16.40
2019-01-10T05:49:26.123Z,14.58
2019-01-10T05:52:03.080Z,16.03
2019-01-10T05:54:39.561Z,14.73
2019-01-10T05:57:15.881Z,17.65
2019-01-10T05:59:52.203Z,15.10
2019-01-10T06:02:28.247Z,15.60
2019-01-10T06:05:04.550Z,15.28
2019-01-10T06:07:43.240Z,12.53
2019-01-10T06:10:22.837Z,12.47
2019-01-10T06:12:59.777Z,14.75
2019-01-10T06:15:36.487Z,12.47
2019-01-10T06:18:12.301Z,12.80
2019-01-10T06:20:48.840Z,13.08
2019-01-10T06:23:25.627Z,14.15
2019-01-10T06:26:02.326Z,12.25
2019-01-10T06:28:38.164Z,13.85
2019-01-10T06:31:14.360Z,11.10
2019-01-10T06:33:50.869Z,11.57
2019-01-10T06:36:27.496Z,11.33
2019-01-10T06:39:05.257Z,10.15
2019-01-10T06:41:44.279Z,10.45
2019-01-10T06:44:21.593Z,10.53
2019-01-10T06:46:57.661Z,12.33
2019-01-10T06:49:33.638Z,12.13
2019-01-10T06:52:10.472Z,11.93
2019-01-10T06:54:56.348Z,10.50
2019-01-10T06:57:24.247Z,10.95
2019-01-10T07:00:02.076Z,9.88
2019-01-10T07:02:38.037Z,9.68
2019-01-10T07:05:14.532Z,9.58
2019-01-10T07:07:56.472Z,10.35
2019-01-10T07:10:30.400Z,9.53
2019-01-10T07:13:06.817Z,10.90
2019-01-10T07:15:42.968Z,10.15
2019-01-10T07:18:18.832Z,11.33
2019-01-10T07:20:55.164Z,9.18
2019-01-10T07:23:31.357Z,9.28
2019-01-10T07:26:07.445Z,9.20
2019-01-10T07:28:44.084Z,8.43
2019-01-10T07:31:30.314Z,7.47
2019-01-10T07:34:06.285Z,8.05
2019-01-10T07:36:44.177Z,9.03
2019-01-10T07:39:20.416Z,7.00
2019-01-10T07:41:57.217Z,7.90
2019-01-10T07:44:33.960Z,8.77
2019-01-10T07:47:10.116Z,9.33
2019-01-10T07:49:47.484Z,7.63
2019-01-10T07:52:23.444Z,8.93
2019-01-10T07:55:01.815Z,6.93
2019-01-10T07:57:38.673Z,8.60
2019-01-10T08:00:17.749Z,8.03
2019-01-10T08:02:54.357Z,6.07
2019-01-10T08:05:30.796Z,6.77
2019-01-10T08:08:08.844Z,7.70
2019-01-10T08:10:45.242Z,6.60
2019-01-10T08:13:21.275Z,5.60
2019-01-10T08:15:57.201Z,7.83
2019-01-10T08:18:35.121Z,7.72
2019-01-10T08:21:11.578Z,5.92
2019-01-10T08:23:48.436Z,7.97
2019-01-10T08:26:24.404Z,7.27
2019-01-10T08:29:00.069Z,5.07
2019-01-10T08:31:36.190Z,5.17
2019-01-10T08:34:11.884Z,6.53
2019-01-10T08:36:47.621Z,5.65
2019-01-10T08:39:25.388Z,5.17
2019-01-10T08:42:01.273Z,6.33
2019-01-10T08:44:36.990Z,4.30
2019-01-10T08:47:13.496Z,5.97
2019-01-10T08:49:49.727Z,6.17
2019-01-10T08:52:25.907Z,5.45
2019-01-10T08:55:03.333Z,5.35
2019-01-10T08:57:39.185Z,5.05
2019-01-10T09:00:17.962Z,5.50
2019-01-10T09:02:55.101Z,5.73
2019-01-10T09:05:30.785Z,5.17
2019-01-10T09:08:07.621Z,5.87
2019-01-10T09:10:44.696Z,5.57
2019-01-10T09:13:20.932Z,5.80
2019-01-10T09:15:56.800Z,5.35
2019-01-10T09:18:33.993Z,4.20
2019-01-10T09:21:10.552Z,6.60
2019-01-10T09:23:46.453Z,4.42
2019-01-10T09:26:22.512Z,5.33
2019-01-10T09:28:58.692Z,4.55
2019-01-10T09:31:35.449Z,4.80
2019-01-10T09:34:11.757Z,4.50
2019-01-10T09:36:48.013Z,4.73
2019-01-10T09:39:25.193Z,2.93
2019-01-10T09:42:01.226Z,5.53
2019-01-10T09:44:37.416Z,4.13
2019-01-10T09:47:13.166Z,6.80
2019-01-10T09:49:49.961Z,5.10
2019-01-10T09:52:26.917Z,5.10
2019-01-10T09:55:02.789Z,3.63
2019-01-10T09:57:39.077Z,3.90
2019-01-10T10:00:22.667Z,4.72
2019-01-10T10:02:59.074Z,4.47
2019-01-10T10:05:34.746Z,3.67
2019-01-10T10:08:11.054Z,4.00
2019-01-10T10:10:47.286Z,5.00
2019-01-10T10:13:23.473Z,4.10
2019-01-10T10:15:59.669Z,4.40
2019-01-10T10:18:35.720Z,3.27
2019-01-10T10:21:12.606Z,3.40
2019-01-10T10:23:49.505Z,3.67
2019-01-10T10:26:26.049Z,3.43
2019-01-10T10:29:02.645Z,5.73
2019-01-10T10:31:38.582Z,3.70
2019-01-10T10:34:15.106Z,12.80
2019-01-10T10:36:52.257Z,9.37
2019-01-10T10:39:28.863Z,8.77
2019-01-10T10:42:05.077Z,11.63
2019-01-10T10:44:41.400Z,10.60
2019-01-10T10:47:17.598Z,9.87
2019-01-10T10:49:54.290Z,10.88
2019-01-10T10:52:30.502Z,9.03
2019-01-10T10:55:07.812Z,6.43
2019-01-10T10:57:44.496Z,8.00
2019-01-10T11:00:25.648Z,7.37
2019-01-10T11:03:02.056Z,19.92
2019-01-10T11:05:38.626Z,23.50
2019-01-10T11:08:16.005Z,23.70
2019-01-10T11:10:52.368Z,21.77
2019-01-10T11:13:28.778Z,21.20
2019-01-10T11:16:10.782Z,19.57
2019-01-10T11:18:44.124Z,15.60
2019-01-10T11:21:20.685Z,15.68
2019-01-10T11:23:57.184Z,16.43
2019-01-10T11:26:33.080Z,10.57
2019-01-10T11:29:08.796Z,19.53
2019-01-10T11:31:49.756Z,9.90
2019-01-10T11:34:25.608Z,18.27
2019-01-10T11:37:01.633Z,12.33
2019-01-10T11:39:38.032Z,10.43
2019-01-10T11:42:14.823Z,14.53
2019-01-10T11:44:50.872Z,14.80
2019-01-10T11:47:28.308Z,12.87
2019-01-10T11:50:06.331Z,14.63
2019-01-10T11:52:43.607Z,11.20
2019-01-10T11:55:20.206Z,10.72
2019-01-10T11:57:57.486Z,12.13
2019-01-10T12:00:35.588Z,12.23
2019-01-10T12:03:13.216Z,10.30
2019-01-10T12:05:53.021Z,9.98
2019-01-10T12:08:30.791Z,7.37
2019-01-10T12:11:07.638Z,8.70
2019-01-10T12:13:43.570Z,10.20
2019-01-10T12:16:28.314Z,8.97
2019-01-10T12:18:59.323Z,6.53
2019-01-10T12:21:36.881Z,10.17
2019-01-10T12:24:13.916Z,11.90
2019-01-10T12:26:50.350Z,11.27
2019-01-10T12:29:26.495Z,12.40
2019-01-10T12:32:02.328Z,9.80
2019-01-10T12:34:38.389Z,9.18
2019-01-10T12:37:14.728Z,11.03
2019-01-10T12:39:50.871Z,10.80
2019-01-10T12:42:26.993Z,10.00
2019-01-10T12:45:04.546Z,9.37
2019-01-10T12:47:40.393Z,7.87
2019-01-10T12:50:25.564Z,6.63
2019-01-10T12:53:07.133Z,10.65
2019-01-10T12:55:43.470Z,7.53
2019-01-10T12:58:19.904Z,9.13
2019-01-10T13:00:56.249Z,8.63
2019-01-10T13:03:32.397Z,9.98
2019-01-10T13:06:11.132Z,7.73
2019-01-10T13:08:47.117Z,8.55
2019-01-10T13:11:23.746Z,10.17
2019-01-10T13:14:00.265Z,5.67
2019-01-10T13:16:36.508Z,6.70
2019-01-10T13:19:12.657Z,4.95
2019-01-10T13:21:48.481Z,7.70
2019-01-10T13:24:24.701Z,7.30
2019-01-10T13:27:01.249Z,7.50
2019-01-10T13:29:37.229Z,7.55
2019-01-10T13:32:13.493Z,5.33
2019-01-10T13:34:50.781Z,4.77
2019-01-10T13:37:27.162Z,6.10
2019-01-10T13:40:04.124Z,5.55
2019-01-10T13:42:40.833Z,5.93
2019-01-10T13:45:17.955Z,8.63
2019-01-10T13:47:54.704Z,6.27
2019-01-10T13:50:32.760Z,6.00
2019-01-10T13:53:11.307Z,7.00
2019-01-10T13:55:47.614Z,6.57
2019-01-10T13:58:24.147Z,6.03
2019-01-10T14:01:00.672Z,5.27
2019-01-10T14:03:37.004Z,5.33
2019-01-10T14:06:13.334Z,7.53
2019-01-10T14:08:49.772Z,4.30
2019-01-10T14:11:26.050Z,9.27
2019-01-10T14:14:01.953Z,4.73
2019-01-10T14:16:37.729Z,4.37
2019-01-10T14:19:13.557Z,4.60
2019-01-10T14:21:49.424Z,5.85
2019-01-10T14:24:26.271Z,8.90
2019-01-10T14:27:02.392Z,6.28
2019-01-10T14:29:38.750Z,5.50
2019-01-10T14:32:14.944Z,7.10
2019-01-10T14:34:51.784Z,5.10
2019-01-10T14:37:27.561Z,5.20
2019-01-10T14:40:04.128Z,7.73
2019-01-10T14:42:40.693Z,5.58
2019-01-10T14:45:17.499Z,6.75
2019-01-10T14:47:53.820Z,5.33
2019-01-10T14:50:30.917Z,5.73
2019-01-10T14:53:07.418Z,4.58
2019-01-10T14:55:43.413Z,7.73
2019-01-10T14:58:20.839Z,5.05
2019-01-10T15:00:57.225Z,4.20
2019-01-10T15:03:33.256Z,3.87
2019-01-10T15:06:10.064Z,4.87
2019-01-10T15:08:46.917Z,5.55
2019-01-10T15:11:22.879Z,4.93
2019-01-10T15:13:59.200Z,4.77
2019-01-10T15:16:35.582Z,6.43
2019-01-10T15:19:12.287Z,5.23
2019-01-10T15:21:48.668Z,4.60
2019-01-10T15:24:25.160Z,4.97
2019-01-10T15:27:02.316Z,6.37
2019-01-10T15:29:38.090Z,5.40
2019-01-10T15:32:13.721Z,6.73
2019-01-10T15:34:50.107Z,4.60
2019-01-10T15:37:26.446Z,4.70
2019-01-10T15:40:03.405Z,4.43
2019-01-10T15:42:39.844Z,5.23
2019-01-10T15:45:15.929Z,4.67
2019-01-10T15:47:52.663Z,4.40
2019-01-10T15:50:28.755Z,4.53
2019-01-10T15:53:05.242Z,7.00
2019-01-10T15:55:42.124Z,6.43
2019-01-10T15:58:20.049Z,3.97
2019-01-10T16:00:57.520Z,4.67
2019-01-10T16:03:34.688Z,4.93
2019-01-10T16:06:11.766Z,2.90
2019-01-10T16:08:48.264Z,4.20
2019-01-10T16:11:24.909Z,5.33
2019-01-10T16:14:01.612Z,4.80
2019-01-10T16:16:37.572Z,7.03
2019-01-10T16:19:13.581Z,12.17
2019-01-10T16:21:49.761Z,6.58
2019-01-10T16:24:26.373Z,7.87
2019-01-10T16:27:02.616Z,12.15
2019-01-10T16:29:38.879Z,6.58
2019-01-10T16:32:14.893Z,6.43
2019-01-10T16:34:53.075Z,7.37
2019-01-10T16:37:29.481Z,6.30
2019-01-10T16:40:07.742Z,9.67
2019-01-10T16:42:43.784Z,4.93
2019-01-10T16:45:30.778Z,6.13
2019-01-10T16:48:06.658Z,8.27
2019-01-10T16:50:43.818Z,6.62
2019-01-10T16:53:19.921Z,3.93
2019-01-10T16:55:55.936Z,6.95
2019-01-10T16:58:32.011Z,4.23
2019-01-10T17:01:08.505Z,6.93
2019-01-10T17:03:45.658Z,5.83
2019-01-10T17:06:22.515Z,7.85
2019-01-10T17:08:59.316Z,3.73
2019-01-10T17:11:35.073Z,6.43
2019-01-10T17:14:10.907Z,6.87
2019-01-10T17:16:50.086Z,5.60
2019-01-10T17:19:25.284Z,6.33
2019-01-10T17:22:02.239Z,4.40
2019-01-10T17:24:39.045Z,7.10
2019-01-10T17:27:15.707Z,4.23
2019-01-10T17:29:51.976Z,6.07
2019-01-10T17:32:28.052Z,7.57
2019-01-10T17:35:05.128Z,6.80
2019-01-10T17:37:41.814Z,5.40
2019-01-10T17:40:19.400Z,4.50
2019-01-10T17:42:55.939Z,5.13
2019-01-10T17:45:34.464Z,6.13
2019-01-10T17:48:11.496Z,4.20
2019-01-10T17:50:47.303Z,4.47
2019-01-10T17:53:23.667Z,5.80
2019-01-10T17:56:00.274Z,7.10
2019-01-10T17:58:36.536Z,5.27
2019-01-10T18:01:13.402Z,3.53
2019-01-10T18:03:49.816Z,5.50
2019-01-10T18:06:26.587Z,5.40
2019-01-10T18:09:03.940Z,6.30
2019-01-10T18:11:39.765Z,5.67
2019-01-10T18:14:16.557Z,4.83
2019-01-10T18:16:53.037Z,2.87
2019-01-10T18:19:29.514Z,3.75
2019-01-10T18:22:06.244Z,4.42
2019-01-10T18:24:42.680Z,4.83
2019-01-10T18:27:18.996Z,5.03
2019-01-10T18:29:54.906Z,4.55
2019-01-10T18:32:31.224Z,3.33
2019-01-10T18:35:08.201Z,4.30
2019-01-10T18:37:44.652Z,4.33
2019-01-10T18:40:21.663Z,6.03
2019-01-10T18:42:57.909Z,3.73
2019-01-10T18:45:35.150Z,3.47
2019-01-10T18:48:11.581Z,3.70
2019-01-10T18:50:48.165Z,4.00
2019-01-10T18:53:24.590Z,4.80
2019-01-10T18:56:01.727Z,3.40
2019-01-10T18:58:38.998Z,3.87
2019-01-10T19:01:16.291Z,4.13
2019-01-10T19:03:52.864Z,3.67
2019-01-10T19:06:29.278Z,4.20
2019-01-10T19:09:08.535Z,5.67
2019-01-10T19:11:47.293Z,3.27
2019-01-10T19:14:25.160Z,3.33
2019-01-10T19:17:02.188Z,3.97
2019-01-10T19:19:39.009Z,3.03
2019-01-10T19:22:16.142Z,4.33
2019-01-10T19:24:52.605Z,4.07
2019-01-10T19:27:29.133Z,2.93
2019-01-10T19:30:09.415Z,3.40
2019-01-10T19:32:46.214Z,3.57
2019-01-10T19:35:22.781Z,2.67
2019-01-10T19:37:59.033Z,3.57
2019-01-10T19:40:35.717Z,4.13
2019-01-10T19:43:14.881Z,3.07
2019-01-10T19:45:51.504Z,3.13
2019-01-10T19:48:27.754Z,2.97
2019-01-10T19:51:03.695Z,2.27
2019-01-10T19:53:40.055Z,4.00
2019-01-10T19:56:15.990Z,3.70
2019-01-10T19:58:52.656Z,2.70
2019-01-10T20:01:28.909Z,4.63
2019-01-10T20:04:05.976Z,3.63
2019-01-10T20:06:42.140Z,3.53
2019-01-10T20:09:17.865Z,3.70
2019-01-10T20:11:53.912Z,3.80
2019-01-10T20:14:30.895Z,4.20
2019-01-10T20:17:08.191Z,3.77
2019-01-10T20:19:44.476Z,4.40
2019-01-10T20:22:20.964Z,2.93
2019-01-10T20:24:59.279Z,4.97
2019-01-10T20:27:36.361Z,4.57
2019-01-10T20:30:14.109Z,5.30
2019-01-10T20:32:50.556Z,4.60
2019-01-10T20:35:27.791Z,6.17
2019-01-10T20:38:04.501Z,6.40
2019-01-10T20:40:43.108Z,5.93
2019-01-10T20:43:20.691Z,7.00
2019-01-10T20:45:57.585Z,6.83
2019-01-10T20:48:34.548Z,6.90
2019-01-10T20:51:11.721Z,6.30
2019-01-10T20:53:50.128Z,6.40
2019-01-10T20:56:27.207Z,6.97
2019-01-10T20:59:03.445Z,5.90
2019-01-10T21:01:40.235Z,7.10
2019-01-10T21:04:17.192Z,5.73
2019-01-10T21:06:53.026Z,6.33
2019-01-10T21:09:29.632Z,6.00
2019-01-10T21:12:06.534Z,7.17
2019-01-10T21:14:42.982Z,6.43
2019-01-10T21:17:20.480Z,6.60
2019-01-10T21:19:56.734Z,6.47
2019-01-10T21:22:32.778Z,8.30
2019-01-10T21:25:09.512Z,5.73
2019-01-10T21:27:45.691Z,4.97
2019-01-10T21:30:22.360Z,5.87
2019-01-10T21:32:58.185Z,5.87
2019-01-10T21:35:34.138Z,4.80
2019-01-10T21:38:10.789Z,6.40
2019-01-10T21:40:46.946Z,7.87
2019-01-10T21:43:22.944Z,5.13
2019-01-10T21:45:58.848Z,5.27
2019-01-10T21:48:36.073Z,5.80
2019-01-10T21:51:12.108Z,6.37
2019-01-10T21:53:49.381Z,5.03
2019-01-10T21:56:25.585Z,5.10
2019-01-10T21:59:02.451Z,4.87
2019-01-10T22:01:39.371Z,5.03
2019-01-10T22:04:15.893Z,5.37
2019-01-10T22:06:52.451Z,5.10
2019-01-10T22:09:30.376Z,5.30
2019-01-10T22:12:07.224Z,6.00
2019-01-10T22:14:43.905Z,4.70
2019-01-10T22:17:19.733Z,5.47
2019-01-10T22:19:56.029Z,5.50
2019-01-10T22:22:31.915Z,5.23
2019-01-10T22:25:08.200Z,4.67
2019-01-10T22:27:45.012Z,4.47
2019-01-10T22:30:22.557Z,4.37
2019-01-10T22:32:59.019Z,4.70
2019-01-10T22:35:36.588Z,4.90
2019-01-10T22:38:13.340Z,5.37
2019-01-10T22:40:49.741Z,4.73
2019-01-10T22:43:25.561Z,4.63
2019-01-10T22:46:02.070Z,4.07
2019-01-10T22:48:38.289Z,5.00
2019-01-10T22:51:15.388Z,3.77
2019-01-10T22:53:51.331Z,5.17
2019-01-10T22:56:27.817Z,3.70
2019-01-10T22:59:04.899Z,4.27
2019-01-10T23:01:50.531Z,4.20
2019-01-10T23:04:33.178Z,4.03
2019-01-10T23:07:23.044Z,4.13
2019-01-10T23:10:08.649Z,3.93
2019-01-10T23:12:44.649Z,3.97
2019-01-10T23:15:33.419Z,3.77
2019-01-10T23:18:10.480Z,4.87
2019-01-10T23:20:55.396Z,4.47
2019-01-10T23:23:32.628Z,3.67
2019-01-10T23:26:09.161Z,4.60
2019-01-10T23:28:45.629Z,3.97
2019-01-10T23:31:21.845Z,3.77
2019-01-10T23:34:24.474Z,3.63
2019-01-10T23:37:00.322Z,4.40
2019-01-10T23:39:36.885Z,4.53
2019-01-10T23:42:13.056Z,5.20
2019-01-10T23:44:50.235Z,4.60
2019-01-10T23:47:26.611Z,6.07
2019-01-10T23:50:03.153Z,4.27
2019-01-10T23:52:39.341Z,3.70
2019-01-10T23:55:15.528Z,4.13
2019-01-10T23:57:51.637Z,5.23
